createdAt,value
2022-08-07T00:00:35.387Z,46.34
2022-08-07T00:03:02.782Z,46.16
2022-08-07T00:05:29.329Z,46.08
2022-08-07T00:08:00.080Z,46.15
2022-08-07T00:10:30.719Z,46.04
2022-08-07T00:13:03.184Z,45.98
2022-08-07T00:15:46.478Z,46.00
2022-08-07T00:18:19.730Z,46.29
2022-08-07T00:20:49.794Z,46.08
2022-08-07T00:23:17.076Z,45.99
2022-08-07T00:25:43.740Z,46.07
2022-08-07T00:28:12.545Z,46.06
2022-08-07T00:30:41.955Z,46.10
2022-08-07T00:33:08.495Z,45.94
2022-08-07T00:35:35.217Z,46.18
2022-08-07T00:38:03.247Z,46.17
2022-08-07T00:40:39.982Z,46.22
2022-08-07T00:44:01.684Z,46.17
2022-08-07T00:45:58.699Z,46.03
2022-08-07T00:48:32.033Z,46.15
2022-08-07T00:50:59.242Z,45.90
2022-08-07T00:53:26.792Z,46.12
2022-08-07T00:56:13.831Z,46.19
2022-08-07T00:58:46.854Z,46.00
2022-08-07T01:01:16.917Z,46.23
2022-08-07T01:03:57.276Z,46.23
2022-08-07T01:06:28.369Z,46.20
2022-08-07T01:08:55.746Z,45.92
2022-08-07T01:12:09.280Z,46.00
2022-08-07T01:14:09.499Z,46.25
2022-08-07T01:16:36.726Z,45.92
2022-08-07T01:19:04.419Z,46.19
2022-08-07T01:21:37.903Z,46.03
2022-08-07T01:24:04.944Z,46.25
2022-08-07T01:26:31.446Z,45.89
2022-08-07T01:28:58.029Z,45.99
2022-08-07T01:31:29.968Z,46.13
2022-08-07T01:34:08.402Z,46.01
2022-08-07T01:36:36.329Z,46.25
2022-08-07T01:39:10.247Z,46.07
2022-08-07T01:41:38.035Z,46.07
2022-08-07T01:44:04.975Z,46.16
2022-08-07T01:46:31.470Z,46.12
2022-08-07T01:48:59.918Z,45.86
2022-08-07T01:52:01.807Z,45.80
2022-08-07T01:54:32.992Z,46.04
2022-08-07T01:57:34.064Z,45.96
2022-08-07T02:00:12.867Z,46.02
2022-08-07T02:03:19.465Z,45.91
2022-08-07T02:05:47.697Z,46.02
2022-08-07T02:08:23.920Z,46.02
2022-08-07T02:10:55.298Z,46.16
2022-08-07T02:13:56.668Z,45.92
2022-08-07T02:16:12.934Z,46.11
2022-08-07T02:18:45.317Z,45.84
2022-08-07T02:21:16.177Z,46.06
2022-08-07T02:23:43.165Z,45.73
2022-08-07T02:26:32.366Z,45.87
2022-08-07T02:28:57.691Z,45.93
2022-08-07T02:31:28.877Z,45.94
2022-08-07T02:34:03.048Z,45.77
2022-08-07T02:36:32.885Z,45.75
2022-08-07T02:38:59.675Z,46.04
2022-08-07T02:41:33.456Z,45.79
2022-08-07T02:44:04.111Z,45.95
2022-08-07T02:46:31.591Z,45.86
2022-08-07T02:48:58.220Z,46.01
2022-08-07T02:51:42.038Z,46.00
2022-08-07T02:54:11.222Z,45.87
2022-08-07T02:56:40.042Z,45.78
2022-08-07T02:59:10.014Z,45.88
2022-08-07T03:01:39.907Z,45.81
2022-08-07T03:04:12.555Z,45.88
2022-08-07T03:06:41.026Z,46.08
2022-08-07T03:11:38.620Z,45.83
2022-08-07T03:14:05.999Z,45.95
2022-08-07T03:18:59.659Z,45.82
2022-08-07T03:21:27.447Z,45.74
2022-08-07T03:24:20.685Z,45.75
2022-08-07T03:29:33.880Z,45.76
2022-08-07T03:32:04.097Z,45.72
2022-08-07T03:34:30.794Z,45.85
2022-08-07T03:36:58.528Z,45.72
2022-08-07T03:39:59.948Z,45.87
2022-08-07T03:42:12.735Z,45.59
2022-08-07T03:44:39.222Z,45.73
2022-08-07T03:47:10.990Z,45.91
2022-08-07T03:49:41.019Z,45.66
2022-08-07T03:52:07.540Z,45.49
2022-08-07T03:54:54.346Z,45.62
2022-08-07T03:58:35.389Z,45.82
2022-08-07T04:00:09.088Z,45.67
2022-08-07T04:02:37.074Z,45.78
2022-08-07T04:05:08.112Z,45.94
2022-08-07T04:07:36.136Z,45.57
2022-08-07T04:10:15.626Z,45.78
2022-08-07T04:12:46.023Z,45.69
2022-08-07T04:15:13.786Z,45.54
2022-08-07T04:18:31.989Z,45.92
2022-08-07T04:20:29.243Z,45.98
2022-08-07T04:23:01.288Z,45.85
2022-08-07T04:25:29.133Z,45.49
2022-08-07T04:28:00.751Z,45.53
2022-08-07T04:30:39.330Z,45.67
2022-08-07T04:33:13.810Z,45.79
2022-08-07T04:35:42.074Z,45.60
2022-08-07T04:38:08.983Z,45.63
2022-08-07T04:40:51.356Z,45.64
2022-08-07T04:43:19.990Z,45.76
2022-08-07T04:46:01.199Z,45.48
2022-08-07T04:48:40.681Z,45.61
2022-08-07T04:51:14.868Z,45.49
2022-08-07T04:54:15.921Z,45.68
2022-08-07T04:58:14.164Z,45.53
2022-08-07T05:00:30.240Z,45.55
2022-08-07T05:04:00.475Z,45.36
2022-08-07T05:06:22.716Z,45.70
2022-08-07T05:09:43.007Z,45.42
2022-08-07T05:12:07.805Z,45.67
2022-08-07T05:15:03.570Z,45.51
2022-08-07T05:17:52.291Z,45.84
2022-08-07T05:20:23.639Z,45.41
2022-08-07T05:22:50.218Z,45.53
2022-08-07T05:25:25.501Z,45.68
2022-08-07T05:28:20.052Z,45.90
2022-08-07T05:30:49.637Z,45.93
2022-08-07T05:33:18.225Z,45.60
2022-08-07T05:35:48.786Z,45.61
2022-08-07T05:38:59.732Z,45.40
2022-08-07T05:41:02.505Z,45.54
2022-08-07T05:43:49.798Z,45.72
2022-08-07T05:46:26.515Z,45.33
2022-08-07T05:48:58.363Z,45.36
2022-08-07T05:51:26.142Z,45.42
2022-08-07T05:54:12.341Z,45.37
2022-08-07T05:56:44.796Z,45.12
2022-08-07T05:59:15.111Z,45.40
2022-08-07T06:01:41.710Z,45.21
2022-08-07T06:04:08.558Z,45.18
2022-08-07T06:06:35.522Z,45.41
2022-08-07T06:09:04.800Z,45.53
2022-08-07T06:11:32.741Z,45.26
2022-08-07T06:14:11.477Z,45.29
2022-08-07T06:16:50.347Z,45.24
2022-08-07T06:19:18.237Z,45.51
2022-08-07T06:22:15.815Z,45.42
2022-08-07T06:24:55.630Z,45.48
2022-08-07T06:27:43.753Z,45.61
2022-08-07T06:30:31.996Z,45.58
2022-08-07T06:32:57.959Z,45.29
2022-08-07T06:35:24.469Z,45.48
2022-08-07T06:38:05.943Z,45.09
2022-08-07T06:40:37.588Z,45.22
2022-08-07T06:43:20.923Z,45.27
2022-08-07T06:45:48.394Z,45.01
2022-08-07T06:48:15.267Z,44.90
2022-08-07T06:50:43.240Z,44.83
2022-08-07T06:53:49.305Z,45.08
2022-08-07T06:56:01.943Z,44.92
2022-08-07T06:58:28.958Z,44.98
2022-08-07T07:00:58.623Z,45.28
2022-08-07T07:03:39.573Z,45.15
2022-08-07T07:06:11.689Z,44.85
2022-08-07T07:08:39.951Z,45.24
2022-08-07T07:12:06.904Z,45.10
2022-08-07T07:14:02.325Z,45.04
2022-08-07T07:16:30.958Z,45.22
2022-08-07T07:19:04.117Z,45.17
2022-08-07T07:22:05.327Z,45.22
2022-08-07T07:24:25.431Z,45.01
2022-08-07T07:26:52.563Z,45.25
2022-08-07T07:29:57.247Z,45.07
2022-08-07T07:32:08.574Z,45.03
2022-08-07T07:34:35.538Z,44.93
2022-08-07T07:37:21.543Z,44.81
2022-08-07T07:39:55.256Z,45.17
2022-08-07T07:42:25.875Z,45.11
2022-08-07T07:45:03.654Z,44.97
2022-08-07T07:47:30.312Z,44.82
2022-08-07T07:50:35.973Z,45.11
2022-08-07T07:53:03.548Z,45.24
2022-08-07T07:55:37.297Z,44.95
2022-08-07T07:58:04.198Z,45.21
2022-08-07T08:00:34.349Z,45.27
2022-08-07T08:03:08.317Z,45.13
2022-08-07T08:05:51.017Z,45.04
2022-08-07T08:08:34.259Z,45.16
2022-08-07T08:11:03.077Z,45.35
2022-08-07T08:13:36.671Z,45.04
2022-08-07T08:16:19.003Z,44.98
2022-08-07T08:18:51.519Z,45.25
2022-08-07T08:21:59.092Z,45.23
2022-08-07T08:24:45.332Z,45.31
2022-08-07T08:27:14.289Z,45.22
2022-08-07T08:29:54.598Z,45.04
2022-08-07T08:32:25.131Z,44.86
2022-08-07T08:34:52.696Z,44.93
2022-08-07T08:38:01.765Z,44.90
2022-08-07T08:40:12.376Z,45.17
2022-08-07T08:43:09.669Z,45.06
2022-08-07T08:45:59.271Z,44.92
2022-08-07T08:48:35.927Z,45.12
2022-08-07T08:51:14.753Z,44.79
2022-08-07T08:53:57.477Z,44.97
2022-08-07T08:56:29.083Z,45.04
2022-08-07T08:59:16.492Z,44.79
2022-08-07T09:01:50.354Z,44.81
2022-08-07T09:04:48.220Z,44.87
2022-08-07T09:07:57.567Z,44.95
2022-08-07T09:10:34.354Z,45.10
2022-08-07T09:13:03.794Z,44.96
2022-08-07T09:16:23.811Z,44.72
2022-08-07T09:19:00.413Z,44.80
2022-08-07T09:22:23.131Z,44.60
2022-08-07T09:24:58.935Z,44.80
2022-08-07T09:27:38.396Z,44.61
2022-08-07T09:30:28.121Z,44.74
2022-08-07T09:33:16.475Z,44.55
2022-08-07T09:36:05.988Z,44.77
2022-08-07T09:39:11.592Z,44.54
2022-08-07T09:42:07.809Z,44.74
2022-08-07T09:47:24.707Z,44.48
2022-08-07T09:48:14.611Z,44.70
2022-08-07T09:51:14.788Z,44.43
2022-08-07T09:54:00.587Z,44.70
2022-08-07T09:56:58.713Z,44.60
2022-08-07T10:00:01.815Z,44.60
2022-08-07T10:02:39.730Z,44.59
2022-08-07T10:05:59.822Z,44.38
2022-08-07T10:08:52.306Z,44.60
2022-08-07T10:11:59.213Z,44.07
2022-08-07T10:15:06.718Z,44.35
2022-08-07T10:18:02.500Z,44.21
2022-08-07T10:20:39.695Z,44.56
2022-08-07T10:24:06.227Z,44.35
2022-08-07T10:26:51.637Z,44.39
2022-08-07T10:29:45.970Z,44.38
2022-08-07T10:32:52.570Z,44.50
2022-08-07T10:35:53.451Z,44.16
2022-08-07T10:38:41.200Z,44.14
2022-08-07T10:41:46.409Z,44.42
2022-08-07T10:44:37.806Z,44.46
2022-08-07T10:47:27.251Z,44.29
2022-08-07T10:50:19.493Z,44.35
2022-08-07T10:53:23.338Z,44.49
2022-08-07T10:56:04.958Z,44.40
2022-08-07T10:58:49.664Z,44.39
2022-08-07T11:01:51.427Z,44.40
2022-08-07T11:04:49.336Z,44.59
2022-08-07T11:07:58.733Z,44.56
2022-08-07T11:10:30.240Z,44.55
2022-08-07T11:14:46.196Z,44.37
2022-08-07T11:16:15.559Z,44.52
2022-08-07T11:18:51.808Z,44.46
2022-08-07T11:21:40.739Z,44.71
2022-08-07T11:24:23.063Z,44.54
2022-08-07T11:27:00.312Z,44.69
2022-08-07T11:29:41.993Z,44.53
2022-08-07T11:32:55.562Z,44.56
2022-08-07T11:35:29.346Z,44.70
2022-08-07T11:38:12.595Z,44.95
2022-08-07T11:40:56.120Z,44.28
2022-08-07T11:43:54.640Z,44.52
2022-08-07T11:46:48.639Z,44.63
2022-08-07T11:49:51.599Z,44.75
2022-08-07T11:52:29.259Z,44.29
2022-08-07T11:55:13.289Z,44.65
2022-08-07T11:58:16.920Z,44.51
2022-08-07T12:01:12.458Z,44.43
2022-08-07T12:04:02.123Z,44.50
2022-08-07T12:06:39.587Z,44.59
2022-08-07T12:09:35.709Z,42.91
2022-08-07T12:12:12.444Z,42.80
2022-08-07T12:14:44.911Z,40.96
2022-08-07T12:17:22.119Z,39.28
2022-08-07T12:20:03.941Z,36.28
2022-08-07T12:23:14.315Z,37.75
2022-08-07T12:26:22.478Z,40.06
2022-08-07T12:29:03.665Z,39.98
2022-08-07T12:32:02.033Z,40.62
2022-08-07T12:34:33.053Z,41.01
2022-08-07T12:36:59.583Z,40.92
2022-08-07T12:39:42.401Z,39.74
2022-08-07T12:42:13.032Z,40.21
2022-08-07T12:44:45.082Z,40.90
2022-08-07T12:47:27.047Z,40.73
2022-08-07T12:50:39.450Z,40.87
2022-08-07T12:53:17.969Z,41.14
2022-08-07T12:56:03.339Z,41.55
2022-08-07T12:58:35.399Z,41.28
2022-08-07T13:01:32.243Z,41.17
2022-08-07T13:04:32.616Z,41.28
2022-08-07T13:08:13.824Z,40.74
2022-08-07T13:10:38.978Z,40.98
2022-08-07T13:13:48.294Z,41.15
2022-08-07T13:16:30.548Z,41.21
2022-08-07T13:19:02.857Z,41.31
2022-08-07T13:21:50.098Z,41.39
2022-08-07T13:24:29.382Z,41.32
2022-08-07T13:27:20.735Z,41.34
2022-08-07T13:29:51.194Z,41.29
2022-08-07T13:32:38.831Z,41.25
2022-08-07T13:35:11.611Z,41.27
2022-08-07T13:37:55.465Z,41.36
2022-08-07T13:40:36.607Z,41.47
2022-08-07T13:43:11.856Z,41.33
2022-08-07T13:46:12.043Z,41.32
2022-08-07T13:48:34.098Z,40.91
2022-08-07T13:51:02.379Z,41.04
2022-08-07T13:54:02.108Z,41.16
2022-08-07T13:56:35.863Z,40.76
2022-08-07T13:59:13.025Z,40.47
2022-08-07T14:02:03.739Z,40.88
2022-08-07T14:04:35.665Z,40.69
2022-08-07T14:07:09.765Z,40.55
2022-08-07T14:10:12.386Z,40.73
2022-08-07T14:12:36.832Z,40.80
2022-08-07T14:15:10.410Z,40.90
2022-08-07T14:18:24.305Z,40.97
2022-08-07T14:20:43.086Z,40.67
2022-08-07T14:23:58.780Z,40.70
2022-08-07T14:26:30.621Z,40.88
2022-08-07T14:29:04.329Z,40.76
2022-08-07T14:31:42.505Z,40.82
2022-08-07T14:34:27.227Z,41.08
2022-08-07T14:36:56.577Z,40.55
2022-08-07T14:40:18.277Z,40.68
2022-08-07T14:42:20.514Z,40.58
2022-08-07T14:44:52.643Z,40.91
2022-08-07T14:47:19.222Z,41.04
2022-08-07T14:49:56.940Z,41.09
2022-08-07T14:52:28.800Z,41.07
2022-08-07T14:54:55.641Z,41.17
2022-08-07T14:57:25.133Z,40.87
2022-08-07T15:00:11.923Z,41.15
2022-08-07T15:02:47.435Z,41.00
2022-08-07T15:05:23.757Z,40.73
2022-08-07T15:07:51.785Z,40.82
2022-08-07T15:10:26.364Z,40.70
2022-08-07T15:13:06.138Z,40.59
2022-08-07T15:15:40.494Z,40.79
2022-08-07T15:18:35.878Z,40.81
2022-08-07T15:21:44.115Z,40.58
2022-08-07T15:26:44.927Z,41.18
2022-08-07T15:32:02.782Z,41.32
2022-08-07T15:34:57.040Z,40.73
2022-08-07T15:37:28.305Z,41.17
2022-08-07T15:39:58.234Z,41.06
2022-08-07T15:42:48.007Z,41.30
2022-08-07T15:45:20.796Z,40.98
2022-08-07T15:51:11.944Z,41.08
2022-08-07T15:53:52.019Z,40.99
2022-08-07T15:56:21.561Z,41.22
2022-08-07T15:58:57.793Z,41.24
2022-08-07T16:01:38.491Z,41.52
2022-08-07T16:04:14.710Z,41.44
2022-08-07T16:06:58.541Z,41.12
2022-08-07T16:09:42.204Z,41.17
2022-08-07T16:12:41.539Z,41.35
2022-08-07T16:16:42.923Z,41.73
2022-08-07T16:19:42.898Z,41.57
2022-08-07T16:22:33.957Z,41.54
2022-08-07T16:25:52.334Z,41.76
2022-08-07T16:30:09.076Z,41.53
2022-08-07T16:31:49.966Z,41.95
2022-08-07T16:34:41.707Z,41.88
2022-08-07T16:38:06.695Z,41.85
2022-08-07T16:40:28.284Z,41.67
2022-08-07T16:43:15.705Z,41.83
2022-08-07T16:47:04.883Z,41.91
2022-08-07T16:50:20.184Z,41.65
2022-08-07T16:52:50.748Z,41.88
2022-08-07T16:55:43.750Z,42.13
2022-08-07T16:59:10.186Z,42.03
2022-08-07T17:01:56.522Z,42.12
2022-08-07T17:04:57.857Z,41.97
2022-08-07T17:07:52.046Z,41.91
2022-08-07T17:10:32.220Z,42.31
2022-08-07T17:13:04.477Z,41.98
2022-08-07T17:15:51.641Z,42.33
2022-08-07T17:18:38.241Z,42.17
2022-08-07T17:21:18.498Z,42.24
2022-08-07T17:23:49.147Z,42.50
2022-08-07T17:26:49.731Z,42.33
2022-08-07T17:30:16.010Z,42.33
2022-08-07T17:33:03.740Z,42.04
2022-08-07T17:35:54.844Z,42.08
2022-08-07T17:38:36.257Z,42.32
2022-08-07T17:42:02.821Z,42.31
2022-08-07T17:44:08.297Z,42.19
2022-08-07T17:47:01.190Z,42.30
2022-08-07T17:49:44.417Z,42.30
2022-08-07T17:52:13.931Z,42.28
2022-08-07T17:54:53.657Z,42.21
2022-08-07T17:57:58.850Z,42.39
2022-08-07T18:00:34.260Z,42.16
2022-08-07T18:03:28.680Z,42.26
2022-08-07T18:06:16.582Z,42.43
2022-08-07T18:09:06.186Z,42.23
2022-08-07T18:12:06.543Z,42.21
2022-08-07T18:14:38.089Z,42.22
2022-08-07T18:18:45.626Z,42.30
2022-08-07T18:21:04.367Z,42.04
2022-08-07T18:23:42.326Z,42.34
2022-08-07T18:26:00.976Z,42.43
2022-08-07T18:28:36.267Z,42.32
2022-08-07T18:31:40.511Z,42.24
2022-08-07T18:34:39.360Z,42.16
2022-08-07T18:38:58.641Z,42.48
2022-08-07T18:40:42.343Z,42.29
2022-08-07T18:43:37.246Z,42.56
2022-08-07T18:46:43.146Z,42.38
2022-08-07T18:50:32.866Z,42.23
2022-08-07T18:52:58.014Z,42.30
2022-08-07T18:55:57.558Z,42.45
2022-08-07T18:58:42.428Z,42.53
2022-08-07T19:02:18.278Z,42.58
2022-08-07T19:04:14.461Z,42.43
2022-08-07T19:06:55.484Z,42.54
2022-08-07T19:09:57.400Z,42.28
2022-08-07T19:12:20.192Z,42.74
2022-08-07T19:14:51.227Z,42.43
2022-08-07T19:17:59.425Z,42.46
2022-08-07T19:20:29.817Z,42.31
2022-08-07T19:23:18.654Z,42.16
2022-08-07T19:26:25.326Z,42.16
2022-08-07T19:30:55.781Z,42.29
2022-08-07T19:32:03.484Z,42.14
2022-08-07T19:34:33.725Z,42.31
2022-08-07T19:37:10.399Z,42.46
2022-08-07T19:39:57.493Z,42.31
2022-08-07T19:42:30.305Z,42.01
2022-08-07T19:44:58.954Z,42.13
2022-08-07T19:47:29.307Z,42.16
2022-08-07T19:50:41.124Z,42.01
2022-08-07T19:52:58.445Z,42.38
2022-08-07T19:55:25.933Z,42.35
2022-08-07T19:58:15.381Z,42.25
2022-08-07T20:00:54.268Z,42.16
2022-08-07T20:03:33.810Z,42.37
2022-08-07T20:06:03.816Z,42.11
2022-08-07T20:08:34.378Z,42.21
2022-08-07T20:11:03.944Z,42.14
2022-08-07T20:13:50.428Z,42.19
2022-08-07T20:16:34.649Z,42.06
2022-08-07T20:19:06.088Z,42.40
2022-08-07T20:21:42.045Z,42.04
2022-08-07T20:24:30.117Z,42.21
2022-08-07T20:27:01.205Z,42.07
2022-08-07T20:29:49.209Z,41.94
2022-08-07T20:32:22.747Z,42.23
2022-08-07T20:34:52.874Z,42.13
2022-08-07T20:37:23.976Z,42.25
2022-08-07T20:40:04.303Z,42.04
2022-08-07T20:42:31.595Z,41.91
2022-08-07T20:44:59.141Z,42.24
2022-08-07T20:47:25.906Z,42.03
2022-08-07T20:50:12.335Z,42.01
2022-08-07T20:52:50.425Z,41.89
2022-08-07T20:55:20.727Z,42.04
2022-08-07T21:03:08.813Z,41.99
2022-08-07T21:05:56.062Z,41.67
2022-08-07T21:08:36.414Z,41.91
2022-08-07T21:11:04.121Z,41.91
2022-08-07T21:13:57.445Z,41.74
2022-08-07T21:16:17.184Z,41.91
2022-08-07T21:18:46.202Z,41.77
2022-08-07T21:21:17.311Z,41.74
2022-08-07T21:23:55.841Z,41.92
2022-08-07T21:26:42.837Z,41.84
2022-08-07T21:29:19.297Z,41.70
2022-08-07T21:32:47.090Z,41.92
2022-08-07T21:35:17.340Z,42.05
2022-08-07T21:38:21.593Z,41.94
2022-08-07T21:40:59.082Z,41.94
2022-08-07T21:43:47.324Z,41.98
2022-08-07T21:46:31.822Z,41.86
2022-08-07T21:49:14.775Z,41.88
2022-08-07T21:51:51.772Z,41.91
2022-08-07T21:54:30.153Z,41.86
2022-08-07T21:57:39.652Z,41.82
2022-08-07T22:00:22.905Z,41.87
2022-08-07T22:02:53.727Z,42.11
2022-08-07T22:05:44.792Z,41.87
2022-08-07T22:08:12.341Z,41.75
2022-08-07T22:10:42.234Z,42.03
2022-08-07T22:13:12.610Z,41.90
2022-08-07T22:16:42.301Z,41.83
2022-08-07T22:19:29.904Z,42.07
2022-08-07T22:22:21.484Z,41.77
2022-08-07T22:25:02.751Z,41.86
2022-08-07T22:28:07.651Z,41.88
2022-08-07T22:30:22.143Z,41.77
2022-08-07T22:33:12.616Z,41.64
2022-08-07T22:36:04.795Z,41.92
2022-08-07T22:38:52.775Z,41.71
2022-08-07T22:42:03.176Z,41.80
2022-08-07T22:44:32.756Z,41.73
2022-08-07T22:47:32.857Z,41.95
2022-08-07T22:50:20.654Z,41.73
2022-08-07T22:53:17.738Z,41.91
2022-08-07T22:55:52.732Z,41.68
2022-08-07T22:58:52.930Z,41.90
2022-08-07T23:01:50.993Z,41.80
2022-08-07T23:04:57.829Z,41.87
2022-08-07T23:07:42.441Z,41.76
2022-08-07T23:10:37.913Z,41.87
2022-08-07T23:13:48.956Z,41.92
2022-08-07T23:16:54.806Z,41.52
2022-08-07T23:20:07.380Z,41.81
2022-08-07T23:22:59.946Z,42.04
2022-08-07T23:25:56.524Z,41.74
2022-08-07T23:28:58.744Z,42.09
2022-08-07T23:34:19.694Z,41.86
2022-08-07T23:35:09.609Z,42.04
2022-08-07T23:38:01.494Z,42.02
2022-08-07T23:40:31.569Z,41.61
2022-08-07T23:43:01.238Z,41.74
2022-08-07T23:46:03.922Z,41.89
2022-08-07T23:48:35.062Z,41.72
2022-08-07T23:52:59.510Z,41.84
2022-08-07T23:54:43.959Z,41.61
2022-08-07T23:57:19.791Z,42.08
